createdAt,value
2022-10-04T00:01:45.969Z,101443.78
2022-10-04T00:04:30.550Z,101435.44
2022-10-04T00:07:18.192Z,101429.09
2022-10-04T00:10:03.182Z,101419.63
2022-10-04T00:12:48.904Z,101413.09
2022-10-04T00:15:30.390Z,101405.00
2022-10-04T00:18:24.281Z,101402.34
2022-10-04T00:21:07.536Z,101396.94
2022-10-04T00:23:49.259Z,101395.34
2022-10-04T00:27:02.937Z,101383.06
2022-10-04T00:29:43.566Z,101375.94
2022-10-04T00:32:32.120Z,101359.84
2022-10-04T00:35:51.675Z,101348.13
2022-10-04T00:38:33.029Z,101344.88
2022-10-04T00:41:14.097Z,101330.66
2022-10-04T00:43:54.520Z,101321.00
2022-10-04T00:46:37.727Z,101313.03
2022-10-04T00:49:22.232Z,101307.88
2022-10-04T00:52:08.333Z,101288.31
2022-10-04T00:54:51.484Z,101287.06
2022-10-04T00:57:35.900Z,101290.13
2022-10-04T01:00:21.330Z,101289.84
2022-10-04T01:03:18.140Z,101271.28
2022-10-04T01:06:02.837Z,101249.91
2022-10-04T01:08:47.055Z,101237.63
2022-10-04T01:11:30.145Z,101237.22
2022-10-04T01:14:14.487Z,101229.94
2022-10-04T01:16:54.633Z,101228.03
2022-10-04T01:19:34.313Z,101228.13
2022-10-04T01:22:16.162Z,101234.03
2022-10-04T01:24:55.559Z,101240.19
2022-10-04T01:27:44.171Z,101234.75
2022-10-04T01:30:26.718Z,101227.47
2022-10-04T01:33:08.163Z,101222.19
2022-10-04T01:35:48.119Z,101220.34
2022-10-04T01:38:29.006Z,101210.44
2022-10-04T01:41:10.136Z,101213.81
2022-10-04T01:43:52.561Z,101220.38
2022-10-04T01:46:37.544Z,101214.50
2022-10-04T01:49:20.401Z,101216.63
2022-10-04T01:52:06.672Z,101214.69
2022-10-04T01:54:51.400Z,101212.88
2022-10-04T01:57:36.220Z,101204.75
2022-10-04T02:00:16.911Z,101198.34
2022-10-04T02:02:59.770Z,100746.94
2022-10-04T02:05:43.486Z,100862.09
2022-10-04T02:08:28.710Z,100860.81
2022-10-04T02:11:08.893Z,100858.47
2022-10-04T02:13:52.226Z,100859.28
2022-10-04T02:16:36.593Z,100852.72
2022-10-04T02:19:33.923Z,100855.09
2022-10-04T02:22:59.135Z,100843.38
2022-10-04T02:25:38.600Z,100840.84
2022-10-04T02:28:19.833Z,100834.53
2022-10-04T02:31:20.178Z,100847.97
2022-10-04T02:34:02.897Z,100843.50
2022-10-04T02:36:43.605Z,100855.66
2022-10-04T02:39:26.757Z,100864.63
2022-10-04T02:42:13.621Z,100841.56
2022-10-04T02:44:59.896Z,100842.09
2022-10-04T02:47:44.896Z,100843.75
2022-10-04T02:50:30.161Z,100847.25
2022-10-04T02:53:15.597Z,100841.25
2022-10-04T02:55:56.601Z,100843.91
2022-10-04T02:58:40.645Z,100837.78
2022-10-04T03:01:27.545Z,100843.75
2022-10-04T03:04:12.469Z,100835.78
2022-10-04T03:06:56.048Z,100839.44
2022-10-04T03:09:37.334Z,100835.78
2022-10-04T03:12:17.231Z,100830.78
2022-10-04T03:14:56.927Z,100814.00
2022-10-04T03:17:36.984Z,100815.84
2022-10-04T03:20:21.147Z,100809.38
2022-10-04T03:23:02.021Z,100803.41
2022-10-04T03:25:50.190Z,100803.41
2022-10-04T03:28:30.481Z,100805.34
2022-10-04T03:31:14.000Z,100799.19
2022-10-04T03:33:55.224Z,100802.81
2022-10-04T03:36:35.682Z,100798.91
2022-10-04T03:39:39.458Z,100814.56
2022-10-04T03:42:21.245Z,100816.81
2022-10-04T03:45:05.728Z,100823.34
2022-10-04T03:47:50.429Z,100813.44
2022-10-04T03:50:30.463Z,100813.72
2022-10-04T03:53:13.731Z,100812.88
2022-10-04T03:55:54.272Z,100820.69
2022-10-04T03:58:35.225Z,100818.34
2022-10-04T04:01:38.631Z,100818.03
2022-10-04T04:04:23.115Z,100823.50
2022-10-04T04:07:04.721Z,100838.75
2022-10-04T04:09:46.439Z,100846.03
2022-10-04T04:12:34.031Z,100851.78
2022-10-04T04:15:15.483Z,100868.84
2022-10-04T04:17:55.907Z,100880.28
2022-10-04T04:20:37.985Z,100891.31
2022-10-04T04:23:24.037Z,100903.75
2022-10-04T04:26:16.647Z,100921.66
2022-10-04T04:28:59.024Z,100924.72
2022-10-04T04:31:44.127Z,100929.19
2022-10-04T04:34:29.822Z,100936.75
2022-10-04T04:37:11.796Z,100937.16
2022-10-04T04:39:55.217Z,100942.63
2022-10-04T04:42:35.946Z,100944.03
2022-10-04T04:45:19.002Z,100944.03
2022-10-04T04:48:01.129Z,100947.78
2022-10-04T04:50:41.423Z,100942.63
2022-10-04T04:53:24.081Z,100947.09
2022-10-04T04:56:05.465Z,100940.38
2022-10-04T04:58:51.161Z,100942.22
2022-10-04T05:01:35.228Z,100945.97
2022-10-04T05:04:21.659Z,100953.94
2022-10-04T05:07:06.267Z,100948.22
2022-10-04T05:09:48.637Z,100944.28
2022-10-04T05:12:31.628Z,100942.19
2022-10-04T05:15:15.723Z,100937.03
2022-10-04T05:17:55.549Z,100942.34
2022-10-04T05:20:35.419Z,100935.66
2022-10-04T05:23:14.238Z,100933.41
2022-10-04T05:25:55.025Z,100945.72
2022-10-04T05:28:35.194Z,100938.59
2022-10-04T05:31:30.040Z,100933.16
2022-10-04T05:34:20.518Z,100934.53
2022-10-04T05:37:16.777Z,100929.50
2022-10-04T05:40:06.228Z,100928.38
2022-10-04T05:42:46.821Z,100928.66
2022-10-04T05:45:38.232Z,100925.03
2022-10-04T05:48:40.626Z,100917.75
2022-10-04T05:51:23.650Z,100908.00
2022-10-04T05:54:33.193Z,100904.34
2022-10-04T05:57:48.713Z,100899.88
2022-10-04T06:00:38.555Z,100889.28
2022-10-04T06:03:27.644Z,100875.03
2022-10-04T06:06:32.430Z,100862.50
2022-10-04T06:09:21.178Z,100849.63
2022-10-04T06:12:08.112Z,100845.28
2022-10-04T06:15:21.892Z,100837.88
2022-10-04T06:18:11.727Z,100833.25
2022-10-04T06:21:03.224Z,100826.38
2022-10-04T06:23:52.324Z,100816.06
2022-10-04T06:26:54.733Z,100817.03
2022-10-04T06:29:39.910Z,100804.31
2022-10-04T06:43:32.570Z,100818.88
2022-10-04T06:46:17.190Z,100827.81
2022-10-04T06:49:10.693Z,100836.47
2022-10-04T06:52:17.523Z,100835.38
2022-10-04T06:55:16.380Z,100840.38
2022-10-04T06:58:17.405Z,100835.22
2022-10-04T07:01:00.428Z,100829.44
2022-10-04T07:03:51.576Z,100834.31
2022-10-04T07:06:35.075Z,100823.09
2022-10-04T07:09:23.005Z,100814.22
2022-10-04T07:12:08.679Z,100813.06
2022-10-04T07:14:52.507Z,100797.75
2022-10-04T07:17:44.585Z,100784.34
2022-10-04T07:20:30.022Z,100782.94
2022-10-04T07:23:15.203Z,100809.56
2022-10-04T07:25:59.151Z,100823.66
2022-10-04T07:29:08.261Z,100844.81
2022-10-04T07:31:50.235Z,100877.00
2022-10-04T07:34:32.813Z,100894.38
2022-10-04T07:37:14.004Z,100913.09
2022-10-04T07:40:23.088Z,100941.75
2022-10-04T07:43:06.397Z,100956.44
2022-10-04T07:45:50.670Z,100976.47
2022-10-04T07:48:43.809Z,101011.47
2022-10-04T08:02:02.120Z,101136.13
2022-10-04T08:04:46.753Z,101161.59
2022-10-04T08:07:33.485Z,101178.66
2022-10-04T08:10:39.018Z,101202.28
2022-10-04T08:13:24.655Z,101410.22
2022-10-04T08:16:15.086Z,101418.03
2022-10-04T08:19:45.768Z,101432.88
2022-10-04T08:22:35.232Z,101452.81
2022-10-04T08:25:19.589Z,101448.91
2022-10-04T08:28:21.542Z,101465.28
2022-10-04T08:31:11.058Z,101475.47
2022-10-04T08:34:02.075Z,101480.13
2022-10-04T08:37:04.730Z,101488.75
2022-10-04T08:39:57.355Z,101495.69
2022-10-04T08:43:13.215Z,101503.63
2022-10-04T08:46:21.603Z,101498.38
2022-10-04T08:49:26.354Z,101503.41
2022-10-04T08:52:22.398Z,101514.84
2022-10-04T08:55:35.087Z,101511.56
2022-10-04T08:58:46.823Z,101516.34
2022-10-04T09:02:00.060Z,101528.94
2022-10-04T09:04:51.453Z,101531.97
2022-10-04T09:07:59.310Z,101532.34
2022-10-04T09:11:23.380Z,101527.44
2022-10-04T09:14:24.265Z,101531.88
2022-10-04T09:17:22.759Z,101538.16
2022-10-04T09:20:37.639Z,101554.75
2022-10-04T09:23:42.926Z,101560.81
2022-10-04T09:26:30.895Z,101565.91
2022-10-04T09:29:43.804Z,101556.97
2022-10-04T09:33:16.011Z,101567.75
2022-10-04T09:36:28.190Z,101575.09
2022-10-04T09:39:30.422Z,101573.41
2022-10-04T09:42:47.854Z,101583.09
2022-10-04T09:45:52.507Z,101599.06
2022-10-04T09:48:37.935Z,101608.88
2022-10-04T09:51:42.636Z,101617.94
2022-10-04T09:54:45.677Z,101635.91
2022-10-04T09:57:33.485Z,101640.94
2022-10-04T10:00:23.237Z,101643.13
2022-10-04T10:03:28.942Z,101642.97
2022-10-04T10:06:41.983Z,101642.56
2022-10-04T10:09:44.612Z,101635.63
2022-10-04T10:13:20.911Z,101640.41
2022-10-04T10:16:33.273Z,101646.09
2022-10-04T10:19:45.302Z,101630.34
2022-10-04T10:23:02.701Z,101645.88
2022-10-04T10:25:48.830Z,101652.25
2022-10-04T10:28:47.567Z,101644.47
2022-10-04T10:31:45.834Z,101629.69
2022-10-04T10:34:59.267Z,101625.25
2022-10-04T10:37:49.561Z,101625.91
2022-10-04T10:40:48.408Z,101629.16
2022-10-04T10:43:46.386Z,101631.63
2022-10-04T10:46:39.344Z,101625.72
2022-10-04T10:49:31.786Z,101638.56
2022-10-04T10:52:56.277Z,101634.25
2022-10-04T10:56:14.609Z,101627.19
2022-10-04T10:59:33.358Z,101631.56
2022-10-04T11:02:49.512Z,101632.13
2022-10-04T11:06:01.458Z,101632.47
2022-10-04T11:09:09.229Z,101627.56
2022-10-04T11:12:29.626Z,101630.41
2022-10-04T11:15:43.744Z,101623.94
2022-10-04T11:18:45.214Z,101623.53
2022-10-04T11:21:42.164Z,101632.25
2022-10-04T11:24:55.291Z,101617.63
2022-10-04T11:27:49.164Z,101612.81
2022-10-04T11:30:40.778Z,101615.47
2022-10-04T11:33:52.424Z,101612.97
2022-10-04T11:36:49.925Z,101612.81
2022-10-04T11:39:46.149Z,101611.50
2022-10-04T11:42:41.678Z,101613.66
2022-10-04T11:45:54.130Z,101606.09
2022-10-04T11:48:44.180Z,101599.69
2022-10-04T11:51:47.887Z,101591.41
2022-10-04T11:54:47.798Z,101598.03
2022-10-04T11:57:32.533Z,101589.50
2022-10-04T12:00:16.069Z,101589.72
2022-10-04T12:03:17.448Z,101581.81
2022-10-04T12:06:22.266Z,101581.41
2022-10-04T12:09:05.724Z,101574.94
2022-10-04T12:12:34.642Z,101581.94
2022-10-04T12:15:41.393Z,101584.13
2022-10-04T12:18:57.096Z,101568.28
2022-10-04T12:21:52.452Z,101559.47
2022-10-04T12:24:48.222Z,101552.63
2022-10-04T12:27:55.233Z,101559.31
2022-10-04T12:30:44.743Z,101542.53
2022-10-04T12:33:31.111Z,101544.63
2022-10-04T12:36:25.774Z,101536.53
2022-10-04T12:39:28.361Z,101524.53
2022-10-04T12:42:21.683Z,101525.28
2022-10-04T12:45:17.555Z,101529.81
2022-10-04T12:48:09.027Z,101535.72
2022-10-04T12:50:54.035Z,101521.72
2022-10-04T12:53:47.972Z,101518.34
2022-10-04T12:56:43.178Z,101519.53
2022-10-04T12:59:42.169Z,101503.09
2022-10-04T13:02:36.921Z,101506.06
2022-10-04T13:05:22.426Z,101497.78
2022-10-04T13:08:12.026Z,101496.25
2022-10-04T13:11:20.566Z,101499.25
2022-10-04T13:14:17.925Z,101497.00
2022-10-04T13:17:27.124Z,101492.94
2022-10-04T13:20:22.018Z,101494.06
2022-10-04T13:23:04.416Z,101494.28
2022-10-04T13:26:07.167Z,101500.53
2022-10-04T13:28:55.663Z,101497.00
2022-10-04T13:31:41.289Z,101499.53
2022-10-04T13:34:32.331Z,101497.47
2022-10-04T13:37:25.837Z,101487.66
2022-10-04T13:40:27.846Z,101487.84
2022-10-04T13:43:33.568Z,101478.56
2022-10-04T13:46:40.803Z,101492.72
2022-10-04T13:49:29.333Z,101487.56
2022-10-04T13:52:34.000Z,101475.00
2022-10-04T13:55:42.110Z,101463.97
2022-10-04T13:58:37.271Z,101458.00
2022-10-04T14:02:04.206Z,101458.94
2022-10-04T14:05:10.686Z,101461.97
2022-10-04T14:08:06.574Z,101445.25
2022-10-04T14:11:09.059Z,101436.72
2022-10-04T14:14:10.135Z,101436.94
2022-10-04T14:17:11.989Z,101430.13
2022-10-04T14:20:18.891Z,101424.03
2022-10-04T14:24:12.808Z,101426.88
2022-10-04T14:27:11.468Z,101424.88
2022-10-04T14:30:12.414Z,101411.34
2022-10-04T14:33:49.113Z,101420.56
2022-10-04T14:36:48.564Z,101416.44
2022-10-04T14:40:01.039Z,101409.97
2022-10-04T14:43:03.437Z,101399.41
2022-10-04T14:46:02.644Z,101399.59
2022-10-04T14:48:53.488Z,101417.00
2022-10-04T14:51:46.793Z,101421.56
2022-10-04T14:54:38.280Z,101422.09
2022-10-04T14:57:25.909Z,101412.81
2022-10-04T15:00:16.165Z,101409.28
2022-10-04T15:03:29.540Z,101408.38
2022-10-04T15:06:22.109Z,101405.22
2022-10-04T15:09:17.989Z,101414.63
2022-10-04T15:12:27.237Z,101415.00
2022-10-04T15:15:32.256Z,101420.16
2022-10-04T15:18:28.163Z,101420.22
2022-10-04T15:21:13.251Z,101424.69
2022-10-04T15:23:59.476Z,101420.97
2022-10-04T15:26:51.347Z,101413.47
2022-10-04T15:29:33.134Z,101399.19
2022-10-04T15:32:21.954Z,101395.22
2022-10-04T15:35:28.014Z,101380.16
2022-10-04T15:38:23.176Z,101372.94
2022-10-04T15:41:08.218Z,101368.47
2022-10-04T15:44:16.839Z,101365.78
2022-10-04T15:46:58.523Z,101373.22
2022-10-04T15:49:52.717Z,101374.31
2022-10-04T15:52:58.131Z,101374.31
2022-10-04T15:55:58.938Z,101385.41
2022-10-04T15:58:54.780Z,101379.88
2022-10-04T16:01:44.065Z,101375.41
2022-10-04T16:04:46.385Z,101382.16
2022-10-04T16:07:41.343Z,101367.75
2022-10-04T16:10:26.603Z,101355.03
2022-10-04T16:13:36.278Z,101349.53
2022-10-04T16:16:43.099Z,101356.47
2022-10-04T16:19:54.465Z,101353.78
2022-10-04T16:22:35.955Z,101352.53
2022-10-04T16:25:38.531Z,101357.53
2022-10-04T16:28:28.047Z,101345.53
2022-10-04T16:31:24.694Z,101347.03
2022-10-04T16:34:18.517Z,101347.88
2022-10-04T16:36:59.904Z,101341.53
2022-10-04T16:39:58.251Z,101352.28
2022-10-04T16:42:48.437Z,101348.25
2022-10-04T16:45:37.593Z,101338.59
2022-10-04T16:48:47.550Z,101351.31
2022-10-04T16:52:03.272Z,101348.97
2022-10-04T16:55:11.109Z,101345.94
2022-10-04T16:58:22.577Z,101341.75
2022-10-04T17:01:46.092Z,101336.22
2022-10-04T17:04:44.920Z,101326.34
2022-10-04T17:07:45.205Z,101324.53
2022-10-04T17:10:34.067Z,101322.84
2022-10-04T17:13:23.378Z,101314.97
2022-10-04T17:16:13.665Z,101313.50
2022-10-04T17:19:15.845Z,101305.44
2022-10-04T17:22:01.437Z,101307.13
2022-10-04T17:24:53.494Z,101296.06
2022-10-04T17:27:51.461Z,101294.88
2022-10-04T17:30:44.555Z,101296.38
2022-10-04T17:33:37.899Z,101285.16
2022-10-04T17:36:35.477Z,101285.63
2022-10-04T17:39:40.039Z,101284.25
2022-10-04T17:42:29.204Z,101288.09
2022-10-04T17:45:22.085Z,101284.53
2022-10-04T17:48:26.267Z,101292.19
2022-10-04T17:51:31.958Z,101291.00
2022-10-04T17:54:40.538Z,101285.16
2022-10-04T17:57:27.199Z,101285.97
2022-10-04T18:00:10.398Z,101282.09
2022-10-04T18:03:08.970Z,101271.22
2022-10-04T18:06:03.310Z,101271.31
2022-10-04T18:09:11.900Z,101261.28
2022-10-04T18:11:57.139Z,101256.88
2022-10-04T18:14:53.219Z,101254.84
2022-10-04T18:17:39.326Z,101256.81
2022-10-04T18:20:58.494Z,101266.78
2022-10-04T18:23:53.616Z,101268.94
2022-10-04T18:26:34.578Z,101267.91
2022-10-04T18:29:16.754Z,101269.38
2022-10-04T18:31:59.864Z,101278.00
2022-10-04T18:35:27.342Z,101285.28
2022-10-04T18:38:24.652Z,101289.53
2022-10-04T18:41:18.969Z,101302.88
2022-10-04T18:44:14.922Z,101310.72
2022-10-04T18:46:58.553Z,101320.41
2022-10-04T18:50:18.813Z,101308.06
2022-10-04T18:53:24.683Z,101311.88
2022-10-04T18:56:10.142Z,101310.63
2022-10-04T18:59:16.935Z,101311.94
2022-10-04T19:02:04.226Z,101301.19
2022-10-04T19:04:48.611Z,101305.00
2022-10-04T19:07:37.479Z,101293.81
2022-10-04T19:10:26.355Z,101301.56
2022-10-04T19:13:17.139Z,101290.50
2022-10-04T19:16:13.673Z,101289.47
2022-10-04T19:19:20.525Z,101284.59
2022-10-04T19:22:03.083Z,101283.34
2022-10-04T19:24:55.242Z,101272.31
2022-10-04T19:27:40.072Z,101272.19
2022-10-04T19:30:22.434Z,101277.16
2022-10-04T19:33:13.852Z,101283.78
2022-10-04T19:36:19.420Z,101296.16
2022-10-04T19:39:33.713Z,101301.38
2022-10-04T19:42:15.187Z,101313.13
2022-10-04T19:45:25.771Z,101306.44
2022-10-04T19:48:14.822Z,101312.06
2022-10-04T19:50:59.644Z,101309.16
2022-10-04T19:53:43.352Z,101301.19
2022-10-04T19:56:25.487Z,101292.66
2022-10-04T19:59:09.865Z,101279.94
2022-10-04T20:01:51.134Z,101272.22
2022-10-04T20:04:38.279Z,101277.44
2022-10-04T20:07:23.446Z,101287.22
2022-10-04T20:10:17.904Z,101278.53
2022-10-04T20:13:21.183Z,101282.47
2022-10-04T20:16:04.248Z,101283.63
2022-10-04T20:19:00.515Z,101283.78
2022-10-04T20:21:38.743Z,101283.91
2022-10-04T20:24:50.412Z,101278.06
2022-10-04T20:28:02.522Z,101288.69
2022-10-04T20:30:55.666Z,101288.00
2022-10-04T20:33:52.036Z,101287.88
2022-10-04T20:36:54.453Z,101283.38
2022-10-04T20:39:58.737Z,101283.63
2022-10-04T20:42:42.599Z,101285.19
2022-10-04T20:45:31.514Z,101282.69
2022-10-04T20:48:17.590Z,101299.34
2022-10-04T20:51:21.868Z,101300.72
2022-10-04T20:54:06.413Z,101307.72
2022-10-04T20:56:48.917Z,101320.06
2022-10-04T20:59:31.608Z,101318.38
2022-10-04T21:02:17.845Z,101313.66
2022-10-04T21:05:13.043Z,101304.69
2022-10-04T21:08:13.223Z,101309.31
2022-10-04T21:11:16.961Z,101306.34
2022-10-04T21:14:01.867Z,101308.56
2022-10-04T21:16:48.077Z,101311.94
2022-10-04T21:19:51.255Z,101298.84
2022-10-04T21:22:40.583Z,101288.78
2022-10-04T21:25:32.914Z,101276.84
2022-10-04T21:28:37.884Z,101267.69
2022-10-04T21:31:21.259Z,101269.53
2022-10-04T21:34:00.743Z,101279.03
2022-10-04T21:36:41.003Z,101275.53
2022-10-04T21:39:23.674Z,101281.72
2022-10-04T21:42:02.113Z,101271.59
2022-10-04T21:44:41.608Z,101275.78
2022-10-04T21:47:21.763Z,101272.44
2022-10-04T21:50:01.163Z,101268.34
2022-10-04T21:52:41.047Z,101267.38
2022-10-04T21:55:20.772Z,101275.44
2022-10-04T21:58:00.661Z,101275.97
2022-10-04T22:00:42.385Z,101283.59
2022-10-04T22:03:21.809Z,101280.91
2022-10-04T22:06:01.617Z,101276.59
2022-10-04T22:08:43.756Z,101278.25
2022-10-04T22:11:23.140Z,101291.28
2022-10-04T22:14:36.281Z,101285.25
2022-10-04T22:17:41.225Z,101293.25
2022-10-04T22:20:21.960Z,101284.56
2022-10-04T22:23:02.135Z,101283.50
2022-10-04T22:25:56.205Z,101288.97
2022-10-04T22:28:35.126Z,101289.09
2022-10-04T22:31:16.748Z,101283.38
2022-10-04T22:33:57.352Z,101289.41
2022-10-04T22:36:38.824Z,101294.19
2022-10-04T22:39:19.838Z,101295.31
2022-10-04T22:42:01.477Z,101279.66
2022-10-04T22:44:41.362Z,101285.28
2022-10-04T22:47:21.041Z,101288.19
2022-10-04T22:50:01.128Z,101288.50
2022-10-04T22:52:40.592Z,101290.63
2022-10-04T22:55:20.476Z,101289.09
2022-10-04T22:58:00.275Z,101286.72
2022-10-04T23:00:42.587Z,101280.97
2022-10-04T23:03:31.105Z,101271.75
2022-10-04T23:06:14.103Z,101263.34
2022-10-04T23:08:56.005Z,101260.13
2022-10-04T23:11:35.682Z,101260.13
2022-10-04T23:14:18.071Z,101244.19
2022-10-04T23:16:58.089Z,101251.47
2022-10-04T23:19:37.899Z,101245.63
2022-10-04T23:22:19.196Z,101241.97
2022-10-04T23:24:58.566Z,101253.59
2022-10-04T23:27:38.980Z,101245.22
2022-10-04T23:30:22.353Z,101245.91
2022-10-04T23:33:18.253Z,101247.03
2022-10-04T23:35:58.172Z,101252.63
2022-10-04T23:38:39.168Z,101249.13
2022-10-04T23:41:21.381Z,101246.47
2022-10-04T23:44:46.398Z,101251.25
2022-10-04T23:47:49.226Z,101243.25
2022-10-04T23:50:31.447Z,101252.38
2022-10-04T23:53:17.555Z,101250.69
2022-10-04T23:55:58.430Z,101246.06
2022-10-04T23:58:40.543Z,101246.22
